sensor_id;sensor_type;location;lat;lon;timestamp;pressure;altitude;pressure_sealevel;temperature;humidity
80566;BME280;69915;54.862;10.730;2024-02-26T00:01:26;100321.16;;;4.10;100.00
80566;BME280;69915;54.862;10.730;2024-02-26T00:03:52;100316.56;;;4.05;100.00
80566;BME280;69915;54.862;10.730;2024-02-26T00:06:18;100322.56;;;4.12;100.00
80566;BME280;69915;54.862;10.730;2024-02-26T00:08:45;100321.16;;;4.10;100.00
80566;BME280;69915;54.862;10.730;2024-02-26T00:11:10;100325.78;;;4.09;100.00
80566;BME280;69915;54.862;10.730;2024-02-26T00:13:36;100327.44;;;4.15;100.00
80566;BME280;69915;54.862;10.730;2024-02-26T00:16:03;100323.66;;;4.16;100.00
80566;BME280;69915;54.862;10.730;2024-02-26T00:18:29;100332.56;;;4.12;100.00
80566;BME280;69915;54.862;10.730;2024-02-26T00:20:54;100327.91;;;4.07;100.00
80566;BME280;69915;54.862;10.730;2024-02-26T00:23:20;100335.78;;;4.09;100.00
80566;BME280;69915;54.862;10.730;2024-02-26T00:25:45;100342.25;;;4.03;100.00
80566;BME280;69915;54.862;10.730;2024-02-26T00:28:11;100335.16;;;3.97;100.00
80566;BME280;69915;54.862;10.730;2024-02-26T00:30:38;100326.53;;;4.00;100.00
80566;BME280;69915;54.862;10.730;2024-02-26T00:33:04;100334.59;;;3.95;100.00
80566;BME280;69915;54.862;10.730;2024-02-26T00:35:29;100331.13;;;3.99;100.00
80566;BME280;69915;54.862;10.730;2024-02-26T00:37:55;100327.03;;;3.97;100.00
80566;BME280;69915;54.862;10.730;2024-02-26T00:40:20;100333.00;;;3.99;100.00
80566;BME280;69915;54.862;10.730;2024-02-26T00:42:46;100329.47;;;3.98;100.00
80566;BME280;69915;54.862;10.730;2024-02-26T00:45:13;100337.03;;;3.96;100.00
80566;BME280;69915;54.862;10.730;2024-02-26T00:47:39;100336.75;;;3.93;100.00
80566;BME280;69915;54.862;10.730;2024-02-26T00:50:07;100329.66;;;3.87;100.00
80566;BME280;69915;54.862;10.730;2024-02-26T00:52:33;100336.00;;;3.70;100.00
80566;BME280;69915;54.862;10.730;2024-02-26T00:54:59;100328.38;;;3.62;100.00
80566;BME280;69915;54.862;10.730;2024-02-26T00:57:25;100332.13;;;3.56;100.00
80566;BME280;69915;54.862;10.730;2024-02-26T00:59:50;100331.94;;;3.36;100.00
80566;BME280;69915;54.862;10.730;2024-02-26T01:02:16;100329.66;;;3.28;100.00
80566;BME280;69915;54.862;10.730;2024-02-26T01:04:41;100332.06;;;3.24;100.00
80566;BME280;69915;54.862;10.730;2024-02-26T01:07:07;100346.03;;;3.16;100.00
80566;BME280;69915;54.862;10.730;2024-02-26T01:09:32;100358.09;;;3.09;100.00
80566;BME280;69915;54.862;10.730;2024-02-26T01:11:58;100350.63;;;2.94;100.00
80566;BME280;69915;54.862;10.730;2024-02-26T01:14:23;100358.81;;;2.78;100.00
80566;BME280;69915;54.862;10.730;2024-02-26T01:16:49;100369.84;;;2.76;100.00
80566;BME280;69915;54.862;10.730;2024-02-26T01:19:14;100373.69;;;2.80;100.00
80566;BME280;69915;54.862;10.730;2024-02-26T01:21:41;100362.06;;;2.80;100.00
80566;BME280;69915;54.862;10.730;2024-02-26T01:24:06;100377.56;;;2.67;100.00
80566;BME280;69915;54.862;10.730;2024-02-26T01:26:32;100374.06;;;2.67;100.00
80566;BME280;69915;54.862;10.730;2024-02-26T01:28:57;100371.53;;;2.60;100.00
80566;BME280;69915;54.862;10.730;2024-02-26T01:31:23;100376.47;;;2.47;100.00
80566;BME280;69915;54.862;10.730;2024-02-26T01:33:49;100375.97;;;2.50;100.00
80566;BME280;69915;54.862;10.730;2024-02-26T01:36:14;100380.28;;;2.51;100.00
80566;BME280;69915;54.862;10.730;2024-02-26T01:38:40;100377.09;;;2.54;100.00
80566;BME280;69915;54.862;10.730;2024-02-26T01:41:05;100374.34;;;2.49;100.00
80566;BME280;69915;54.862;10.730;2024-02-26T01:43:31;100380.00;;;2.47;100.00
80566;BME280;69915;54.862;10.730;2024-02-26T01:45:57;100386.94;;;2.43;100.00
80566;BME280;69915;54.862;10.730;2024-02-26T01:48:23;100375.50;;;2.36;100.00
80566;BME280;69915;54.862;10.730;2024-02-26T01:50:48;100374.88;;;2.29;100.00
80566;BME280;69915;54.862;10.730;2024-02-26T01:53:14;100377.97;;;2.21;100.00
80566;BME280;69915;54.862;10.730;2024-02-26T01:55:41;100381.94;;;2.13;100.00
80566;BME280;69915;54.862;10.730;2024-02-26T01:58:07;100364.91;;;1.96;100.00
80566;BME280;69915;54.862;10.730;2024-02-26T02:00:32;100368.69;;;1.95;100.00
80566;BME280;69915;54.862;10.730;2024-02-26T02:02:58;100369.00;;;1.99;100.00
80566;BME280;69915;54.862;10.730;2024-02-26T02:05:24;100377.00;;;1.94;100.00
80566;BME280;69915;54.862;10.730;2024-02-26T02:07:51;100381.19;;;1.68;100.00
80566;BME280;69915;54.862;10.730;2024-02-26T02:10:19;100381.41;;;1.67;100.00
80566;BME280;69915;54.862;10.730;2024-02-26T02:12:48;100374.94;;;1.51;100.00
80566;BME280;69915;54.862;10.730;2024-02-26T02:15:14;100378.09;;;1.48;100.00
80566;BME280;69915;54.862;10.730;2024-02-26T02:17:39;100374.25;;;1.44;100.00
80566;BME280;69915;54.862;10.730;2024-02-26T02:20:15;100384.84;;;1.62;100.00
80566;BME280;69915;54.862;10.730;2024-02-26T02:22:41;100384.59;;;1.63;100.00
80566;BME280;69915;54.862;10.730;2024-02-26T02:25:06;100385.16;;;1.65;100.00
80566;BME280;69915;54.862;10.730;2024-02-26T02:27:32;100387.53;;;1.62;100.00
80566;BME280;69915;54.862;10.730;2024-02-26T02:29:58;100382.31;;;1.55;100.00
80566;BME280;69915;54.862;10.730;2024-02-26T02:32:25;100398.38;;;1.22;100.00
80566;BME280;69915;54.862;10.730;2024-02-26T02:34:51;100387.50;;;1.17;100.00
80566;BME280;69915;54.862;10.730;2024-02-26T02:37:16;100387.50;;;1.17;100.00
80566;BME280;69915;54.862;10.730;2024-02-26T02:39:43;100389.81;;;1.25;100.00
80566;BME280;69915;54.862;10.730;2024-02-26T02:42:09;100404.06;;;1.37;100.00
80566;BME280;69915;54.862;10.730;2024-02-26T02:44:34;100385.31;;;1.02;100.00
80566;BME280;69915;54.862;10.730;2024-02-26T02:47:00;100405.09;;;1.08;100.00
80566;BME280;69915;54.862;10.730;2024-02-26T02:49:25;100405.00;;;1.03;100.00
80566;BME280;69915;54.862;10.730;2024-02-26T02:51:51;100396.22;;;0.96;100.00
80566;BME280;69915;54.862;10.730;2024-02-26T02:54:18;100410.94;;;1.05;100.00
80566;BME280;69915;54.862;10.730;2024-02-26T02:56:44;100398.34;;;0.94;100.00
80566;BME280;69915;54.862;10.730;2024-02-26T02:59:09;100406.44;;;0.82;100.00
80566;BME280;69915;54.862;10.730;2024-02-26T03:01:35;100409.13;;;0.71;100.00
80566;BME280;69915;54.862;10.730;2024-02-26T03:04:00;100404.22;;;0.68;100.00
80566;BME280;69915;54.862;10.730;2024-02-26T03:06:26;100415.13;;;0.73;100.00
80566;BME280;69915;54.862;10.730;2024-02-26T03:08:53;100411.13;;;0.75;100.00
80566;BME280;69915;54.862;10.730;2024-02-26T03:11:19;100417.69;;;0.79;100.00
80566;BME280;69915;54.862;10.730;2024-02-26T03:13:45;100417.88;;;0.89;100.00
80566;BME280;69915;54.862;10.730;2024-02-26T03:16:11;100416.00;;;0.90;100.00
80566;BME280;69915;54.862;10.730;2024-02-26T03:18:39;100424.72;;;0.69;100.00
80566;BME280;69915;54.862;10.730;2024-02-26T03:21:05;100421.31;;;0.62;100.00
80566;BME280;69915;54.862;10.730;2024-02-26T03:23:31;100425.09;;;0.61;100.00
80566;BME280;69915;54.862;10.730;2024-02-26T03:25:58;100423.31;;;0.43;100.00
80566;BME280;69915;54.862;10.730;2024-02-26T03:28:23;100425.31;;;0.47;100.00
80566;BME280;69915;54.862;10.730;2024-02-26T03:30:49;100421.91;;;0.40;100.00
80566;BME280;69915;54.862;10.730;2024-02-26T03:33:14;100428.34;;;0.28;100.00
80566;BME280;69915;54.862;10.730;2024-02-26T03:35:40;100435.13;;;0.19;100.00
80566;BME280;69915;54.862;10.730;2024-02-26T03:38:05;100437.00;;;0.18;100.00
80566;BME280;69915;54.862;10.730;2024-02-26T03:40:31;100441.09;;;0.21;100.00
80566;BME280;69915;54.862;10.730;2024-02-26T03:42:58;100435.63;;;0.27;100.00
80566;BME280;69915;54.862;10.730;2024-02-26T03:45:23;100437.94;;;0.35;100.00
80566;BME280;69915;54.862;10.730;2024-02-26T03:47:49;100451.38;;;0.47;100.00
80566;BME280;69915;54.862;10.730;2024-02-26T03:50:14;100453.59;;;0.50;100.00
80566;BME280;69915;54.862;10.730;2024-02-26T03:52:40;100449.75;;;0.58;100.00
80566;BME280;69915;54.862;10.730;2024-02-26T03:55:05;100456.28;;;0.50;100.00
80566;BME280;69915;54.862;10.730;2024-02-26T03:57:31;100459.00;;;0.38;100.00
80566;BME280;69915;54.862;10.730;2024-02-26T03:59:56;100463.19;;;0.23;100.00
80566;BME280;69915;54.862;10.730;2024-02-26T04:02:22;100466.78;;;0.17;100.00
80566;BME280;69915;54.862;10.730;2024-02-26T04:04:49;100469.47;;;0.05;100.00
80566;BME280;69915;54.862;10.730;2024-02-26T04:07:14;100465.50;;;0.08;100.00
80566;BME280;69915;54.862;10.730;2024-02-26T04:09:40;100471.59;;;0.26;100.00
80566;BME280;69915;54.862;10.730;2024-02-26T04:12:05;100468.00;;;0.44;100.00
80566;BME280;69915;54.862;10.730;2024-02-26T04:14:31;100482.59;;;0.83;100.00
80566;BME280;69915;54.862;10.730;2024-02-26T04:16:56;100477.19;;;1.06;100.00
80566;BME280;69915;54.862;10.730;2024-02-26T04:19:22;100480.22;;;1.21;100.00
80566;BME280;69915;54.862;10.730;2024-02-26T04:21:47;100484.16;;;1.30;100.00
80566;BME280;69915;54.862;10.730;2024-02-26T04:24:13;100493.81;;;1.54;100.00
80566;BME280;69915;54.862;10.730;2024-02-26T04:26:38;100498.44;;;1.71;100.00
80566;BME280;69915;54.862;10.730;2024-02-26T04:29:04;100512.25;;;1.74;100.00
80566;BME280;69915;54.862;10.730;2024-02-26T04:31:29;100500.78;;;1.67;100.00
80566;BME280;69915;54.862;10.730;2024-02-26T04:33:58;100500.66;;;1.74;100.00
80566;BME280;69915;54.862;10.730;2024-02-26T04:36:24;100491.22;;;1.88;100.00
80566;BME280;69915;54.862;10.730;2024-02-26T04:38:51;100512.84;;;1.93;100.00
80566;BME280;69915;54.862;10.730;2024-02-26T04:41:17;100505.84;;;1.92;100.00
80566;BME280;69915;54.862;10.730;2024-02-26T04:43:42;100508.81;;;2.07;100.00
80566;BME280;69915;54.862;10.730;2024-02-26T04:46:08;100516.44;;;2.10;100.00
80566;BME280;69915;54.862;10.730;2024-02-26T04:48:35;100518.22;;;2.21;100.00
80566;BME280;69915;54.862;10.730;2024-02-26T04:51:01;100518.41;;;2.31;100.00
80566;BME280;69915;54.862;10.730;2024-02-26T04:53:27;100513.69;;;2.38;100.00
80566;BME280;69915;54.862;10.730;2024-02-26T04:55:52;100526.59;;;2.53;100.00
80566;BME280;69915;54.862;10.730;2024-02-26T04:58:18;100537.22;;;2.59;100.00
80566;BME280;69915;54.862;10.730;2024-02-26T05:00:43;100536.47;;;2.64;100.00
80566;BME280;69915;54.862;10.730;2024-02-26T05:03:09;100534.88;;;2.63;100.00
80566;BME280;69915;54.862;10.730;2024-02-26T05:05:39;100549.81;;;2.70;100.00
80566;BME280;69915;54.862;10.730;2024-02-26T05:08:06;100548.16;;;2.69;100.00
80566;BME280;69915;54.862;10.730;2024-02-26T05:10:33;100550.38;;;2.72;100.00
80566;BME280;69915;54.862;10.730;2024-02-26T05:12:58;100556.22;;;2.81;100.00
80566;BME280;69915;54.862;10.730;2024-02-26T05:15:24;100559.69;;;2.82;100.00
80566;BME280;69915;54.862;10.730;2024-02-26T05:17:49;100565.84;;;2.94;100.00
80566;BME280;69915;54.862;10.730;2024-02-26T05:20:15;100567.63;;;3.05;100.00
80566;BME280;69915;54.862;10.730;2024-02-26T05:22:42;100570.25;;;3.00;100.00
80566;BME280;69915;54.862;10.730;2024-02-26T05:25:07;100565.34;;;2.97;100.00
80566;BME280;69915;54.862;10.730;2024-02-26T05:27:33;100564.34;;;3.03;100.00
80566;BME280;69915;54.862;10.730;2024-02-26T05:29:59;100577.78;;;2.98;100.00
80566;BME280;69915;54.862;10.730;2024-02-26T05:32:24;100582.75;;;3.06;100.00
80566;BME280;69915;54.862;10.730;2024-02-26T05:34:50;100576.47;;;3.00;100.00
80566;BME280;69915;54.862;10.730;2024-02-26T05:37:15;100585.31;;;2.96;100.00
80566;BME280;69915;54.862;10.730;2024-02-26T05:39:40;100580.66;;;3.08;100.00
80566;BME280;69915;54.862;10.730;2024-02-26T05:42:06;100602.09;;;3.14;100.00
80566;BME280;69915;54.862;10.730;2024-02-26T05:44:34;100591.03;;;3.16;100.00
80566;BME280;69915;54.862;10.730;2024-02-26T05:46:59;100588.31;;;3.16;100.00
80566;BME280;69915;54.862;10.730;2024-02-26T05:49:25;100595.31;;;3.12;100.00
80566;BME280;69915;54.862;10.730;2024-02-26T05:51:50;100597.41;;;3.10;100.00
80566;BME280;69915;54.862;10.730;2024-02-26T05:54:16;100601.75;;;3.11;100.00
80566;BME280;69915;54.862;10.730;2024-02-26T05:56:41;100603.31;;;3.23;100.00
80566;BME280;69915;54.862;10.730;2024-02-26T05:59:07;100611.97;;;3.25;100.00
80566;BME280;69915;54.862;10.730;2024-02-26T06:01:33;100605.69;;;3.20;100.00
80566;BME280;69915;54.862;10.730;2024-02-26T06:03:59;100615.94;;;3.18;100.00
80566;BME280;69915;54.862;10.730;2024-02-26T06:06:25;100623.75;;;3.19;100.00
80566;BME280;69915;54.862;10.730;2024-02-26T06:08:50;100625.41;;;3.20;100.00
80566;BME280;69915;54.862;10.730;2024-02-26T06:11:16;100623.75;;;3.19;100.00
80566;BME280;69915;54.862;10.730;2024-02-26T06:13:41;100619.84;;;3.27;100.00
80566;BME280;69915;54.862;10.730;2024-02-26T06:16:08;100627.72;;;3.12;100.00
80566;BME280;69915;54.862;10.730;2024-02-26T06:18:33;100629.81;;;3.10;100.00
80566;BME280;69915;54.862;10.730;2024-02-26T06:20:59;100629.00;;;3.09;100.00
80566;BME280;69915;54.862;10.730;2024-02-26T06:23:25;100638.84;;;2.99;100.00
80566;BME280;69915;54.862;10.730;2024-02-26T06:25:51;100636.22;;;3.04;100.00
80566;BME280;69915;54.862;10.730;2024-02-26T06:28:17;100644.97;;;3.11;100.00
80566;BME280;69915;54.862;10.730;2024-02-26T06:30:43;100653.41;;;3.14;100.00
80566;BME280;69915;54.862;10.730;2024-02-26T06:33:08;100643.34;;;3.10;100.00
80566;BME280;69915;54.862;10.730;2024-02-26T06:35:34;100667.81;;;3.20;100.00
80566;BME280;69915;54.862;10.730;2024-02-26T06:37:59;100663.56;;;3.24;100.00
80566;BME280;69915;54.862;10.730;2024-02-26T06:40:25;100669.28;;;3.27;100.00
80566;BME280;69915;54.862;10.730;2024-02-26T06:42:51;100672.22;;;3.26;100.00
80566;BME280;69915;54.862;10.730;2024-02-26T06:45:17;100661.66;;;3.24;100.00
80566;BME280;69915;54.862;10.730;2024-02-26T06:47:43;100671.06;;;3.22;100.00
80566;BME280;69915;54.862;10.730;2024-02-26T06:50:11;100666.00;;;3.25;100.00
80566;BME280;69915;54.862;10.730;2024-02-26T06:52:36;100681.88;;;3.22;100.00
80566;BME280;69915;54.862;10.730;2024-02-26T06:55:02;100677.56;;;3.21;100.00
80566;BME280;69915;54.862;10.730;2024-02-26T06:57:27;100684.69;;;3.27;100.00
80566;BME280;69915;54.862;10.730;2024-02-26T06:59:53;100681.00;;;3.33;100.00
80566;BME280;69915;54.862;10.730;2024-02-26T07:02:18;100682.44;;;3.41;100.00
80566;BME280;69915;54.862;10.730;2024-02-26T07:04:44;100685.31;;;3.34;100.00
80566;BME280;69915;54.862;10.730;2024-02-26T07:07:10;100681.00;;;3.33;100.00
80566;BME280;69915;54.862;10.730;2024-02-26T07:09:36;100679.75;;;3.41;100.00
80566;BME280;69915;54.862;10.730;2024-02-26T07:12:01;100692.53;;;3.45;100.00
80566;BME280;69915;54.862;10.730;2024-02-26T07:14:27;100680.41;;;3.31;100.00
80566;BME280;69915;54.862;10.730;2024-02-26T07:16:53;100687.78;;;3.36;100.00
80566;BME280;69915;54.862;10.730;2024-02-26T07:19:18;100696.13;;;3.34;100.00
80566;BME280;69915;54.862;10.730;2024-02-26T07:21:44;100693.59;;;3.27;100.00
80566;BME280;69915;54.862;10.730;2024-02-26T07:24:09;100711.03;;;3.37;100.00
80566;BME280;69915;54.862;10.730;2024-02-26T07:26:35;100712.69;;;3.21;100.00
80566;BME280;69915;54.862;10.730;2024-02-26T07:29:00;100718.91;;;3.38;100.00
80566;BME280;69915;54.862;10.730;2024-02-26T07:31:26;100726.75;;;3.40;100.00
80566;BME280;69915;54.862;10.730;2024-02-26T07:33:51;100731.34;;;3.39;100.00
80566;BME280;69915;54.862;10.730;2024-02-26T07:36:17;100736.91;;;3.49;100.00
80566;BME280;69915;54.862;10.730;2024-02-26T07:38:43;100733.63;;;3.30;100.00
80566;BME280;69915;54.862;10.730;2024-02-26T07:41:08;100734.84;;;3.40;100.00
80566;BME280;69915;54.862;10.730;2024-02-26T07:43:34;100730.44;;;3.50;100.00
80566;BME280;69915;54.862;10.730;2024-02-26T07:46:00;100741.97;;;3.62;100.00
80566;BME280;69915;54.862;10.730;2024-02-26T07:48:26;100738.56;;;3.50;100.00
80566;BME280;69915;54.862;10.730;2024-02-26T07:50:51;100750.66;;;3.64;100.00
80566;BME280;69915;54.862;10.730;2024-02-26T07:53:17;100748.03;;;3.69;100.00
80566;BME280;69915;54.862;10.730;2024-02-26T07:55:42;100738.28;;;3.68;100.00
80566;BME280;69915;54.862;10.730;2024-02-26T07:58:08;100739.94;;;3.69;100.00
80566;BME280;69915;54.862;10.730;2024-02-26T08:00:33;100752.63;;;3.69;100.00
80566;BME280;69915;54.862;10.730;2024-02-26T08:02:59;100752.47;;;3.75;100.00
80566;BME280;69915;54.862;10.730;2024-02-26T08:05:24;100760.97;;;3.84;100.00
80566;BME280;69915;54.862;10.730;2024-02-26T08:07:50;100756.44;;;3.90;100.00
80566;BME280;69915;54.862;10.730;2024-02-26T08:10:16;100757.38;;;3.78;100.00
80566;BME280;69915;54.862;10.730;2024-02-26T08:12:41;100759.00;;;3.79;100.00
80566;BME280;69915;54.862;10.730;2024-02-26T08:15:08;100754.41;;;3.80;100.00
80566;BME280;69915;54.862;10.730;2024-02-26T08:17:33;100763.00;;;3.94;100.00
80566;BME280;69915;54.862;10.730;2024-02-26T08:20:00;100761.78;;;3.84;100.00
80566;BME280;69915;54.862;10.730;2024-02-26T08:22:25;100765.63;;;3.89;100.00
80566;BME280;69915;54.862;10.730;2024-02-26T08:24:51;100767.66;;;3.98;100.00
80566;BME280;69915;54.862;10.730;2024-02-26T08:27:16;100772.06;;;4.04;100.00
80566;BME280;69915;54.862;10.730;2024-02-26T08:29:43;100769.59;;;3.81;100.00
80566;BME280;69915;54.862;10.730;2024-02-26T08:32:08;100768.66;;;3.92;100.00
80566;BME280;69915;54.862;10.730;2024-02-26T08:34:34;100775.59;;;4.05;100.00
80566;BME280;69915;54.862;10.730;2024-02-26T08:36:59;100776.75;;;4.09;100.00
80566;BME280;69915;54.862;10.730;2024-02-26T08:39:26;100783.00;;;4.09;100.00
80566;BME280;69915;54.862;10.730;2024-02-26T08:41:52;100791.09;;;4.09;100.00
80566;BME280;69915;54.862;10.730;2024-02-26T08:44:17;100786.72;;;4.25;100.00
80566;BME280;69915;54.862;10.730;2024-02-26T08:46:43;100795.22;;;4.33;100.00
80566;BME280;69915;54.862;10.730;2024-02-26T08:49:09;100793.84;;;4.31;100.00
80566;BME280;69915;54.862;10.730;2024-02-26T08:51:34;100789.94;;;4.22;100.00
80566;BME280;69915;54.862;10.730;2024-02-26T08:54:00;100794.03;;;4.24;100.00
80566;BME280;69915;54.862;10.730;2024-02-26T08:56:25;100794.25;;;4.23;100.00
80566;BME280;69915;54.862;10.730;2024-02-26T08:58:51;100795.06;;;4.23;100.00
80566;BME280;69915;54.862;10.730;2024-02-26T09:01:19;100790.94;;;4.37;100.00
80566;BME280;69915;54.862;10.730;2024-02-26T09:03:44;100786.94;;;4.40;100.00
80566;BME280;69915;54.862;10.730;2024-02-26T09:06:10;100792.13;;;4.47;100.00
80566;BME280;69915;54.862;10.730;2024-02-26T09:08:37;100786.44;;;4.43;100.00
80566;BME280;69915;54.862;10.730;2024-02-26T09:11:03;100789.63;;;4.40;100.00
80566;BME280;69915;54.862;10.730;2024-02-26T09:13:29;100799.56;;;4.34;100.00
80566;BME280;69915;54.862;10.730;2024-02-26T09:15:54;100793.19;;;4.24;100.00
80566;BME280;69915;54.862;10.730;2024-02-26T09:18:20;100805.94;;;4.45;100.00
80566;BME280;69915;54.862;10.730;2024-02-26T09:20:46;100809.38;;;4.40;100.00
80566;BME280;69915;54.862;10.730;2024-02-26T09:23:11;100809.34;;;4.57;100.00
80566;BME280;69915;54.862;10.730;2024-02-26T09:25:37;100801.19;;;4.35;100.00
80566;BME280;69915;54.862;10.730;2024-02-26T09:28:03;100807.47;;;4.19;100.00
80566;BME280;69915;54.862;10.730;2024-02-26T09:30:28;100810.75;;;4.21;100.00
80566;BME280;69915;54.862;10.730;2024-02-26T09:32:54;100808.38;;;4.25;100.00
80566;BME280;69915;54.862;10.730;2024-02-26T09:35:19;100809.50;;;4.29;100.00
80566;BME280;69915;54.862;10.730;2024-02-26T09:37:46;100814.28;;;4.44;100.00
80566;BME280;69915;54.862;10.730;2024-02-26T09:40:14;100814.31;;;4.65;100.00
80566;BME280;69915;54.862;10.730;2024-02-26T09:42:44;100811.34;;;4.67;100.00
80566;BME280;69915;54.862;10.730;2024-02-26T09:45:10;100809.56;;;4.77;100.00
80566;BME280;69915;54.862;10.730;2024-02-26T09:47:38;100816.69;;;4.83;100.00
80566;BME280;69915;54.862;10.730;2024-02-26T09:50:05;100813.09;;;4.56;100.00
80566;BME280;69915;54.862;10.730;2024-02-26T09:52:33;100815.75;;;4.94;100.00
80566;BME280;69915;54.862;10.730;2024-02-26T09:55:00;100820.81;;;5.13;100.00
80566;BME280;69915;54.862;10.730;2024-02-26T09:57:26;100816.06;;;4.98;100.00
80566;BME280;69915;54.862;10.730;2024-02-26T09:59:53;100834.31;;;5.08;100.00
80566;BME280;69915;54.862;10.730;2024-02-26T10:02:20;100820.88;;;5.18;100.00
80566;BME280;69915;54.862;10.730;2024-02-26T10:04:47;100829.16;;;5.33;100.00
80566;BME280;69915;54.862;10.730;2024-02-26T10:07:15;100830.19;;;5.27;100.00
80566;BME280;69915;54.862;10.730;2024-02-26T10:09:41;100823.66;;;5.23;100.00
80566;BME280;69915;54.862;10.730;2024-02-26T10:12:09;100818.66;;;4.88;100.00
80566;BME280;69915;54.862;10.730;2024-02-26T10:14:35;100838.53;;;4.99;100.00
80566;BME280;69915;54.862;10.730;2024-02-26T10:17:02;100842.63;;;5.23;100.00
80566;BME280;69915;54.862;10.730;2024-02-26T10:19:31;100844.91;;;5.36;100.00
80566;BME280;69915;54.862;10.730;2024-02-26T10:21:57;100843.56;;;5.38;100.00
80566;BME280;69915;54.862;10.730;2024-02-26T10:24:23;100846.91;;;5.45;99.96
80566;BME280;69915;54.862;10.730;2024-02-26T10:26:49;100847.91;;;5.34;100.00
80566;BME280;69915;54.862;10.730;2024-02-26T10:29:15;100858.31;;;5.47;99.82
80566;BME280;69915;54.862;10.730;2024-02-26T10:31:43;100852.69;;;5.54;98.29
80566;BME280;69915;54.862;10.730;2024-02-26T10:34:09;100858.25;;;5.96;98.67
80566;BME280;69915;54.862;10.730;2024-02-26T10:36:35;100853.97;;;6.05;97.78
80566;BME280;69915;54.862;10.730;2024-02-26T10:39:04;100857.78;;;6.09;97.20
80566;BME280;69915;54.862;10.730;2024-02-26T10:41:30;100847.50;;;6.11;96.79
80566;BME280;69915;54.862;10.730;2024-02-26T10:43:58;100850.75;;;6.08;96.42
80566;BME280;69915;54.862;10.730;2024-02-26T10:46:25;100847.22;;;6.08;96.38
80566;BME280;69915;54.862;10.730;2024-02-26T10:48:51;100860.81;;;5.81;96.78
80566;BME280;69915;54.862;10.730;2024-02-26T10:51:21;100862.28;;;5.67;98.16
80566;BME280;69915;54.862;10.730;2024-02-26T10:53:51;100863.13;;;5.67;98.74
80566;BME280;69915;54.862;10.730;2024-02-26T10:56:24;100862.59;;;5.70;98.73
80566;BME280;69915;54.862;10.730;2024-02-26T10:58:52;100871.56;;;5.71;99.23
80566;BME280;69915;54.862;10.730;2024-02-26T11:01:19;100875.25;;;5.33;99.61
80566;BME280;69915;54.862;10.730;2024-02-26T11:03:47;100890.06;;;5.47;99.89
80566;BME280;69915;54.862;10.730;2024-02-26T11:06:14;100877.34;;;5.53;100.00
80566;BME280;69915;54.862;10.730;2024-02-26T11:08:41;100895.63;;;5.62;100.00
80566;BME280;69915;54.862;10.730;2024-02-26T11:11:07;100896.03;;;5.49;100.00
80566;BME280;69915;54.862;10.730;2024-02-26T11:13:33;100894.53;;;5.63;100.00
80566;BME280;69915;54.862;10.730;2024-02-26T11:16:00;100897.00;;;5.65;100.00
80566;BME280;69915;54.862;10.730;2024-02-26T11:18:27;100903.91;;;5.77;100.00
80566;BME280;69915;54.862;10.730;2024-02-26T11:20:54;100897.09;;;6.01;100.00
80566;BME280;69915;54.862;10.730;2024-02-26T11:23:22;100907.34;;;5.68;99.89
80566;BME280;69915;54.862;10.730;2024-02-26T11:25:50;100902.81;;;5.78;100.00
80566;BME280;69915;54.862;10.730;2024-02-26T11:28:19;100914.13;;;5.92;100.00
80566;BME280;69915;54.862;10.730;2024-02-26T11:30:47;100908.72;;;6.29;100.00
80566;BME280;69915;54.862;10.730;2024-02-26T11:33:15;100901.41;;;6.34;100.00
80566;BME280;69915;54.862;10.730;2024-02-26T11:35:41;100897.81;;;6.66;99.11
80566;BME280;69915;54.862;10.730;2024-02-26T11:38:07;100895.63;;;6.21;98.34
80566;BME280;69915;54.862;10.730;2024-02-26T11:40:37;100891.00;;;6.21;98.05
80566;BME280;69915;54.862;10.730;2024-02-26T11:43:04;100883.13;;;6.20;98.15
80566;BME280;69915;54.862;10.730;2024-02-26T11:48:15;100893.16;;;6.19;98.57
80566;BME280;69915;54.862;10.730;2024-02-26T11:50:48;100898.41;;;6.31;98.83
80566;BME280;69915;54.862;10.730;2024-02-26T11:56:21;100899.63;;;6.50;98.54
80566;BME280;69915;54.862;10.730;2024-02-26T11:59:10;100892.41;;;6.66;97.54
80566;BME280;69915;54.862;10.730;2024-02-26T12:01:46;100892.06;;;6.57;97.17
80566;BME280;69915;54.862;10.730;2024-02-26T12:04:25;100872.13;;;6.88;96.93
80566;BME280;69915;54.862;10.730;2024-02-26T12:06:56;100877.00;;;6.86;95.93
80566;BME280;69915;54.862;10.730;2024-02-26T12:09:38;100872.47;;;7.02;94.79
80566;BME280;69915;54.862;10.730;2024-02-26T12:12:06;100874.88;;;6.98;94.61
80566;BME280;69915;54.862;10.730;2024-02-26T12:14:51;100872.78;;;7.21;94.09
80566;BME280;69915;54.862;10.730;2024-02-26T12:17:24;100878.63;;;7.70;93.62
80566;BME280;69915;54.862;10.730;2024-02-26T12:19:50;100873.13;;;7.44;92.44
80566;BME280;69915;54.862;10.730;2024-02-26T12:22:18;100868.00;;;7.58;91.75
80566;BME280;69915;54.862;10.730;2024-02-26T12:24:44;100858.19;;;7.62;90.28
80566;BME280;69915;54.862;10.730;2024-02-26T12:27:10;100875.59;;;7.51;89.46
80566;BME280;69915;54.862;10.730;2024-02-26T12:29:36;100874.56;;;7.97;89.46
80566;BME280;69915;54.862;10.730;2024-02-26T12:32:03;100866.91;;;7.64;88.54
80566;BME280;69915;54.862;10.730;2024-02-26T12:34:29;100878.91;;;7.78;88.90
80566;BME280;69915;54.862;10.730;2024-02-26T12:36:55;100878.06;;;7.73;89.05
80566;BME280;69915;54.862;10.730;2024-02-26T12:39:21;100882.16;;;7.70;88.14
80566;BME280;69915;54.862;10.730;2024-02-26T12:41:46;100869.09;;;7.72;86.14